createdAt,value
2018-08-22T00:00:42.352Z,32.85
2018-08-22T00:03:11.978Z,29.05
2018-08-22T00:05:41.877Z,32.35
2018-08-22T00:08:11.697Z,30.05
2018-08-22T00:10:41.186Z,34.78
2018-08-22T00:13:11.092Z,31.30
2018-08-22T00:15:40.907Z,30.75
2018-08-22T00:18:10.666Z,29.82
2018-08-22T00:20:40.396Z,33.65
2018-08-22T00:23:10.152Z,39.20
2018-08-22T00:25:39.802Z,36.80
2018-08-22T00:28:09.500Z,40.30
2018-08-22T00:30:39.158Z,34.75
2018-08-22T00:33:09.720Z,29.67
2018-08-22T00:35:39.460Z,29.50
2018-08-22T00:38:10.263Z,32.90
2018-08-22T00:40:40.596Z,36.20
2018-08-22T00:43:11.983Z,42.58
2018-08-22T00:45:41.863Z,29.42
2018-08-22T00:48:11.440Z,32.40
2018-08-22T00:50:41.307Z,36.03
2018-08-22T00:53:11.835Z,37.15
2018-08-22T00:55:41.788Z,34.30
2018-08-22T00:58:11.406Z,36.08
2018-08-22T01:00:41.202Z,41.30
2018-08-22T01:03:10.882Z,45.63
2018-08-22T01:05:40.546Z,46.77
2018-08-22T01:08:10.058Z,41.40
2018-08-22T01:10:39.879Z,33.92
2018-08-22T01:13:09.540Z,33.53
2018-08-22T01:15:39.161Z,31.33
2018-08-22T01:18:08.759Z,30.17
2018-08-22T01:20:38.572Z,29.87
2018-08-22T01:23:08.257Z,27.17
2018-08-22T01:25:38.025Z,25.97
2018-08-22T01:28:07.505Z,32.00
2018-08-22T01:30:37.235Z,38.98
2018-08-22T01:33:06.696Z,34.73
2018-08-22T01:35:36.594Z,34.55
2018-08-22T01:38:06.505Z,38.88
2018-08-22T01:40:36.277Z,36.28
2018-08-22T01:43:06.030Z,43.00
2018-08-22T01:45:35.800Z,35.45
2018-08-22T01:48:05.906Z,40.05
2018-08-22T01:50:35.643Z,33.73
2018-08-22T01:53:05.175Z,36.73
2018-08-22T01:55:34.961Z,31.40
2018-08-22T01:58:04.645Z,31.80
2018-08-22T02:00:34.424Z,38.92
2018-08-22T02:03:04.281Z,31.52
2018-08-22T02:05:34.054Z,36.03
2018-08-22T02:08:03.693Z,40.60
2018-08-22T02:10:33.800Z,39.10
2018-08-22T02:13:03.921Z,38.42
2018-08-22T02:15:34.112Z,36.50
2018-08-22T02:18:03.646Z,38.45
2018-08-22T02:20:34.104Z,45.10
2018-08-22T02:23:03.806Z,36.60
2018-08-22T02:25:33.387Z,37.15
2018-08-22T02:28:03.006Z,40.10
2018-08-22T02:30:32.612Z,39.25
2018-08-22T02:33:02.234Z,37.85
2018-08-22T02:35:32.292Z,40.33
2018-08-22T02:38:01.872Z,44.58
2018-08-22T02:40:31.504Z,51.75
2018-08-22T02:43:01.092Z,48.28
2018-08-22T02:45:30.812Z,36.30
2018-08-22T02:48:00.440Z,40.17
2018-08-22T02:50:30.223Z,46.90
2018-08-22T02:52:59.974Z,52.73
2018-08-22T02:55:29.699Z,59.42
2018-08-22T02:57:59.514Z,42.25
2018-08-22T03:00:29.247Z,36.08
2018-08-22T03:02:59.043Z,37.93
2018-08-22T03:05:29.060Z,40.00
2018-08-22T03:07:58.819Z,34.73
2018-08-22T03:10:28.598Z,194.80
2018-08-22T03:12:58.193Z,54.93
2018-08-22T03:15:27.888Z,48.07
2018-08-22T03:17:57.477Z,42.83
2018-08-22T03:20:27.147Z,43.53
2018-08-22T03:22:56.869Z,61.30
2018-08-22T03:25:26.538Z,68.90
2018-08-22T03:27:56.140Z,68.10
2018-08-22T03:30:26.049Z,46.43
2018-08-22T03:32:55.504Z,36.47
2018-08-22T03:35:25.097Z,41.53
2018-08-22T03:37:54.750Z,45.20
2018-08-22T03:40:24.460Z,49.30
2018-08-22T03:42:54.053Z,46.10
2018-08-22T03:45:23.949Z,46.27
2018-08-22T03:47:53.646Z,45.53
2018-08-22T03:50:23.432Z,41.80
2018-08-22T03:52:53.188Z,43.27
2018-08-22T03:55:23.005Z,44.93
2018-08-22T03:57:52.614Z,52.07
2018-08-22T04:00:22.527Z,51.17
2018-08-22T04:02:52.318Z,51.27
2018-08-22T04:05:22.049Z,45.70
2018-08-22T04:07:51.652Z,49.37
2018-08-22T04:10:21.569Z,52.40
2018-08-22T04:12:51.097Z,54.17
2018-08-22T04:15:20.869Z,37.40
2018-08-22T04:17:50.755Z,33.70
2018-08-22T04:20:20.546Z,36.47
2018-08-22T04:22:50.214Z,42.03
2018-08-22T04:25:20.125Z,46.60
2018-08-22T04:27:49.667Z,46.97
2018-08-22T04:30:19.330Z,41.57
2018-08-22T04:32:49.075Z,41.37
2018-08-22T04:35:18.835Z,47.53
2018-08-22T04:37:48.543Z,49.53
2018-08-22T04:40:18.373Z,57.37
2018-08-22T04:42:47.958Z,47.20
2018-08-22T04:45:20.766Z,44.53
2018-08-22T04:57:37.048Z,40.03
2018-08-22T05:00:12.106Z,43.65
2018-08-22T05:02:43.524Z,40.50
2018-08-22T05:05:19.730Z,37.93
2018-08-22T05:07:51.863Z,42.05
2018-08-22T05:10:30.658Z,36.50
2018-08-22T05:13:07.581Z,48.10
2018-08-22T05:15:43.401Z,37.00
2018-08-22T05:18:23.462Z,37.63
2018-08-22T05:23:34.141Z,27.82
2018-08-22T05:26:10.682Z,29.18
2018-08-22T05:28:40.679Z,30.35
2018-08-22T05:31:10.611Z,21.37
2018-08-22T05:33:40.689Z,20.80
2018-08-22T05:36:17.327Z,19.35
2018-08-22T05:38:48.248Z,19.20
2018-08-22T05:41:19.241Z,20.97
2018-08-22T05:44:02.028Z,18.92
2018-08-22T05:46:32.585Z,20.57
2018-08-22T05:49:02.579Z,21.55
2018-08-22T05:51:32.821Z,18.87
2018-08-22T05:54:03.328Z,19.12
2018-08-22T05:56:33.507Z,20.43
2018-08-22T05:59:03.520Z,16.73
2018-08-22T06:01:35.007Z,16.20
2018-08-22T06:04:05.467Z,15.38
2018-08-22T06:06:36.007Z,14.65
2018-08-22T06:09:10.585Z,14.85
2018-08-22T06:11:40.680Z,13.38
2018-08-22T06:14:10.679Z,14.18
2018-08-22T06:16:41.372Z,15.68
2018-08-22T06:19:11.708Z,12.80
2018-08-22T06:21:41.658Z,13.15
2018-08-22T06:24:11.479Z,13.45
2018-08-22T06:26:41.162Z,13.00
2018-08-22T06:29:10.743Z,11.83
2018-08-22T06:31:40.598Z,12.47
2018-08-22T06:34:10.143Z,13.20
2018-08-22T06:36:41.275Z,13.45
2018-08-22T06:39:12.659Z,12.82
2018-08-22T06:41:42.850Z,16.57
2018-08-22T06:44:12.691Z,11.73
2018-08-22T06:46:42.753Z,15.58
2018-08-22T06:49:12.418Z,13.10
2018-08-22T06:51:42.061Z,11.85
2018-08-22T06:54:11.797Z,18.17
2018-08-22T06:56:41.451Z,15.45
2018-08-22T06:59:12.411Z,12.75
2018-08-22T07:01:42.070Z,12.82
2018-08-22T07:04:11.515Z,12.65
2018-08-22T07:06:41.207Z,13.28
2018-08-22T07:09:12.718Z,13.88
2018-08-22T07:11:42.411Z,12.20
2018-08-22T07:14:12.142Z,19.57
2018-08-22T07:16:42.040Z,11.10
2018-08-22T07:19:11.793Z,11.30
2018-08-22T07:21:41.419Z,31.37
2018-08-22T07:24:11.074Z,11.93
2018-08-22T07:26:40.778Z,11.35
2018-08-22T07:29:10.497Z,13.48
2018-08-22T07:31:40.125Z,10.70
2018-08-22T07:34:09.675Z,14.30
2018-08-22T07:36:39.296Z,11.30
2018-08-22T07:39:12.643Z,10.25
2018-08-22T07:41:42.287Z,9.98
2018-08-22T07:44:13.689Z,10.78
2018-08-22T07:46:43.479Z,11.45
2018-08-22T07:49:13.070Z,11.22
2018-08-22T07:51:42.824Z,19.82
2018-08-22T07:54:12.444Z,12.03
2018-08-22T07:56:42.371Z,12.70
2018-08-22T07:59:16.368Z,11.90
2018-08-22T08:01:46.078Z,12.40
2018-08-22T08:04:15.533Z,9.98
2018-08-22T08:06:45.248Z,14.05
2018-08-22T08:09:16.211Z,12.23
2018-08-22T08:11:45.811Z,11.95
2018-08-22T08:14:15.457Z,10.13
2018-08-22T08:16:45.248Z,9.70
2018-08-22T08:19:14.772Z,11.10
2018-08-22T08:21:44.452Z,11.25
2018-08-22T08:24:14.192Z,9.20
2018-08-22T08:26:43.954Z,10.05
2018-08-22T08:29:13.458Z,9.38
2018-08-22T08:31:43.137Z,8.95
2018-08-22T08:34:12.752Z,9.43
2018-08-22T08:36:42.639Z,9.63
2018-08-22T08:39:13.027Z,9.35
2018-08-22T08:41:42.721Z,9.53
2018-08-22T08:44:12.177Z,9.75
2018-08-22T08:46:41.966Z,12.63
2018-08-22T08:49:11.653Z,9.78
2018-08-22T08:51:52.224Z,8.63
2018-08-22T08:54:22.655Z,9.98
2018-08-22T08:56:52.523Z,13.08
2018-08-22T08:59:22.063Z,9.83
2018-08-22T09:01:51.788Z,9.80
2018-08-22T09:04:21.406Z,7.92
2018-08-22T09:06:51.686Z,7.95
2018-08-22T09:09:21.178Z,11.30
2018-08-22T09:12:05.411Z,9.38
2018-08-22T09:14:35.317Z,16.52
2018-08-22T09:17:04.950Z,8.05
2018-08-22T09:19:34.597Z,10.08
2018-08-22T09:22:04.440Z,9.23
2018-08-22T09:24:34.264Z,7.90
2018-08-22T09:27:04.197Z,7.33
2018-08-22T09:29:33.651Z,8.50
2018-08-22T09:32:03.324Z,7.22
2018-08-22T09:34:32.949Z,10.85
2018-08-22T09:37:02.574Z,9.85
2018-08-22T09:39:32.377Z,8.55
2018-08-22T09:42:02.092Z,13.90
2018-08-22T09:44:31.635Z,8.13
2018-08-22T09:47:01.324Z,6.85
2018-08-22T09:49:31.036Z,7.95
2018-08-22T09:52:00.643Z,7.60
2018-08-22T09:54:30.221Z,7.53
2018-08-22T09:57:00.018Z,6.62
2018-08-22T09:59:30.040Z,7.78
2018-08-22T10:01:59.701Z,6.25
2018-08-22T10:04:29.598Z,6.28
2018-08-22T10:06:59.419Z,7.05
2018-08-22T10:09:29.008Z,6.97
2018-08-22T10:11:58.816Z,6.87
2018-08-22T10:14:28.590Z,5.70
2018-08-22T10:16:58.357Z,7.12
2018-08-22T10:19:27.857Z,9.08
2018-08-22T10:21:57.669Z,6.03
2018-08-22T10:24:27.320Z,5.15
2018-08-22T10:26:57.143Z,8.80
2018-08-22T10:29:26.860Z,6.12
2018-08-22T10:31:56.482Z,8.55
2018-08-22T10:34:26.078Z,7.50
2018-08-22T10:36:55.952Z,6.45
2018-08-22T10:39:25.562Z,8.73
2018-08-22T10:41:55.297Z,11.85
2018-08-22T10:44:25.071Z,5.55
2018-08-22T10:46:54.688Z,6.60
2018-08-22T10:49:24.356Z,6.97
2018-08-22T10:51:54.203Z,6.42
2018-08-22T10:54:23.823Z,9.45
2018-08-22T10:56:53.440Z,7.78
2018-08-22T10:59:22.959Z,10.30
2018-08-22T11:01:52.826Z,6.17
2018-08-22T11:04:22.566Z,5.80
2018-08-22T11:06:52.392Z,7.60
2018-08-22T11:09:21.943Z,8.05
2018-08-22T11:11:51.616Z,10.28
2018-08-22T11:14:21.459Z,10.53
2018-08-22T11:16:51.324Z,6.10
2018-08-22T11:19:20.765Z,7.55
2018-08-22T11:22:01.079Z,6.10
2018-08-22T11:24:41.114Z,6.87
2018-08-22T11:27:21.261Z,6.87
2018-08-22T11:30:01.401Z,7.67
2018-08-22T11:32:41.709Z,6.62
2018-08-22T11:35:09.567Z,6.72
2018-08-22T11:37:39.372Z,8.45
2018-08-22T11:40:09.073Z,7.25
2018-08-22T11:42:38.840Z,6.28
2018-08-22T11:45:08.628Z,7.15
2018-08-22T11:47:38.369Z,7.60
2018-08-22T11:50:07.973Z,10.43
2018-08-22T11:52:37.559Z,6.25
2018-08-22T11:55:07.334Z,6.72
2018-08-22T11:57:36.921Z,8.83
2018-08-22T12:00:08.127Z,7.65
2018-08-22T12:02:37.730Z,8.48
2018-08-22T12:05:07.404Z,6.78
2018-08-22T12:07:37.168Z,6.53
2018-08-22T12:10:06.915Z,7.28
2018-08-22T12:12:36.631Z,10.70
2018-08-22T12:15:06.105Z,7.45
2018-08-22T12:17:35.870Z,10.20
2018-08-22T12:20:05.557Z,6.35
2018-08-22T12:22:35.332Z,5.90
2018-08-22T12:25:05.089Z,6.15
2018-08-22T12:27:34.785Z,8.43
2018-08-22T12:30:05.221Z,7.58
2018-08-22T12:32:35.003Z,7.67
2018-08-22T12:35:04.557Z,5.85
2018-08-22T12:37:34.316Z,7.15
2018-08-22T12:40:04.070Z,5.83
2018-08-22T12:42:41.175Z,6.75
2018-08-22T12:45:10.830Z,8.10
2018-08-22T12:47:40.591Z,9.78
2018-08-22T12:50:10.227Z,8.33
2018-08-22T12:52:39.868Z,96.00
2018-08-22T12:55:09.544Z,13.45
2018-08-22T12:57:39.896Z,7.17
2018-08-22T13:00:09.468Z,9.63
2018-08-22T13:02:39.288Z,6.83
2018-08-22T13:05:08.866Z,6.20
2018-08-22T13:07:38.383Z,8.58
2018-08-22T13:10:08.105Z,7.00
2018-08-22T13:12:37.865Z,5.97
2018-08-22T13:15:10.066Z,6.17
2018-08-22T13:17:39.733Z,8.78
2018-08-22T13:20:09.306Z,6.35
2018-08-22T13:22:38.958Z,7.75
2018-08-22T13:25:12.012Z,8.45
2018-08-22T13:27:41.674Z,7.33
2018-08-22T13:30:11.364Z,9.28
2018-08-22T13:32:41.396Z,9.15
2018-08-22T13:35:11.380Z,7.08
2018-08-22T13:37:41.144Z,6.55
2018-08-22T13:40:10.713Z,9.65
2018-08-22T13:42:40.426Z,5.90
2018-08-22T13:45:10.482Z,7.50
2018-08-22T13:47:40.288Z,8.85
2018-08-22T13:50:09.944Z,6.45
2018-08-22T13:52:39.827Z,6.78
2018-08-22T13:55:10.042Z,8.60
2018-08-22T13:57:39.666Z,6.80
2018-08-22T14:00:09.889Z,7.83
2018-08-22T14:02:39.783Z,7.30
2018-08-22T14:05:09.413Z,8.73
2018-08-22T14:07:39.064Z,6.67
2018-08-22T14:10:08.615Z,8.60
2018-08-22T14:12:38.368Z,7.17
2018-08-22T14:15:08.343Z,7.00
2018-08-22T14:17:38.091Z,9.45
2018-08-22T14:20:07.805Z,8.30
2018-08-22T14:22:37.615Z,7.55
2018-08-22T14:25:07.282Z,10.20
2018-08-22T14:27:37.745Z,8.43
2018-08-22T14:30:08.522Z,7.42
2018-08-22T14:32:38.382Z,8.43
2018-08-22T14:35:08.130Z,9.95
2018-08-22T14:37:38.045Z,8.63
2018-08-22T14:40:07.713Z,6.97
2018-08-22T14:42:37.593Z,8.25
2018-08-22T14:45:08.172Z,7.80
2018-08-22T14:47:40.509Z,10.50
2018-08-22T14:50:11.719Z,8.28
2018-08-22T14:52:41.810Z,7.10
2018-08-22T14:55:11.385Z,8.10
2018-08-22T14:57:40.985Z,7.97
2018-08-22T15:00:11.968Z,7.33
2018-08-22T15:02:41.833Z,7.33
2018-08-22T15:05:11.623Z,7.25
2018-08-22T15:07:41.393Z,8.35
2018-08-22T15:10:15.267Z,7.75
2018-08-22T15:12:44.827Z,7.22
2018-08-22T15:15:14.278Z,7.05
2018-08-22T15:17:44.387Z,9.28
2018-08-22T15:20:13.971Z,6.72
2018-08-22T15:22:43.433Z,7.05
2018-08-22T15:25:13.003Z,6.90
2018-08-22T15:27:42.480Z,6.83
2018-08-22T15:30:11.953Z,7.65
2018-08-22T15:32:42.529Z,7.92
2018-08-22T15:35:11.939Z,6.50
2018-08-22T15:37:43.144Z,6.72
2018-08-22T15:40:12.629Z,9.30
2018-08-22T15:42:43.034Z,8.45
2018-08-22T15:45:12.490Z,6.62
2018-08-22T15:47:43.393Z,9.20
2018-08-22T15:50:13.075Z,8.35
2018-08-22T15:52:43.268Z,8.60
2018-08-22T15:55:16.849Z,7.22
2018-08-22T15:57:58.599Z,9.15
2018-08-22T16:00:34.446Z,7.60
2018-08-22T16:03:05.440Z,9.63
2018-08-22T16:05:36.233Z,6.85
2018-08-22T16:08:06.388Z,7.62
2018-08-22T16:10:35.892Z,6.90
2018-08-22T16:13:05.690Z,8.85
2018-08-22T16:15:37.091Z,7.08
2018-08-22T16:18:09.872Z,7.35
2018-08-22T16:20:47.723Z,7.58
2018-08-22T16:23:17.395Z,6.95
2018-08-22T16:25:49.291Z,7.42
2018-08-22T16:28:19.027Z,10.00
2018-08-22T16:30:56.951Z,7.05
2018-08-22T16:33:20.929Z,7.15
2018-08-22T16:35:50.517Z,7.87
2018-08-22T16:38:20.505Z,7.15
2018-08-22T16:40:52.756Z,8.80
2018-08-22T16:43:37.703Z,7.62
2018-08-22T16:46:10.787Z,7.37
2018-08-22T16:48:41.396Z,7.37
2018-08-22T16:51:11.763Z,8.05
2018-08-22T16:53:42.259Z,8.43
2018-08-22T16:56:12.263Z,8.75
2018-08-22T16:58:41.975Z,10.53
2018-08-22T17:01:11.587Z,7.40
2018-08-22T17:03:41.234Z,9.73
2018-08-22T17:06:14.647Z,8.00
2018-08-22T17:08:44.090Z,8.90
2018-08-22T17:11:13.694Z,7.78
2018-08-22T17:13:47.437Z,8.33
2018-08-22T17:16:17.068Z,11.05
2018-08-22T17:18:46.397Z,8.90
2018-08-22T17:21:16.181Z,11.22
2018-08-22T17:23:46.171Z,10.35
2018-08-22T17:26:18.406Z,11.90
2018-08-22T17:28:53.769Z,9.75
2018-08-22T17:31:24.771Z,16.37
2018-08-22T17:33:57.133Z,10.93
2018-08-22T17:36:27.347Z,10.40
2018-08-22T17:38:58.516Z,11.53
2018-08-22T17:41:30.252Z,12.28
2018-08-22T17:44:07.920Z,11.08
2018-08-22T17:46:41.592Z,11.90
2018-08-22T17:49:11.545Z,11.30
2018-08-22T17:51:55.060Z,13.60
2018-08-22T17:54:25.103Z,13.20
2018-08-22T17:57:06.157Z,11.08
2018-08-22T17:59:36.157Z,12.65
2018-08-22T18:02:06.196Z,11.65
2018-08-22T18:04:47.018Z,12.20
2018-08-22T18:07:18.290Z,12.28
2018-08-22T18:09:49.400Z,16.73
2018-08-22T18:12:20.548Z,13.90
2018-08-22T18:14:50.525Z,14.53
2018-08-22T18:17:22.290Z,13.58
2018-08-22T18:19:52.337Z,16.62
2018-08-22T18:22:22.470Z,15.23
2018-08-22T18:24:56.490Z,14.75
2018-08-22T18:28:13.301Z,17.52
2018-08-22T18:30:53.700Z,14.93
2018-08-22T18:33:24.278Z,12.80
2018-08-22T18:35:56.409Z,14.55
2018-08-22T18:38:27.434Z,12.53
2018-08-22T18:41:08.642Z,14.25
2018-08-22T18:43:40.255Z,13.40
2018-08-22T18:46:10.837Z,15.45
2018-08-22T18:48:47.642Z,15.78
2018-08-22T18:51:36.352Z,18.05
2018-08-22T18:54:07.346Z,14.58
2018-08-22T18:56:37.528Z,13.95
2018-08-22T18:59:18.053Z,13.30
2018-08-22T19:01:49.018Z,13.45
2018-08-22T19:04:19.029Z,14.00
2018-08-22T19:06:48.914Z,15.80
2018-08-22T19:09:18.684Z,13.50
2018-08-22T19:11:48.571Z,15.78
2018-08-22T19:14:23.806Z,15.05
2018-08-22T19:16:53.877Z,14.60
2018-08-22T19:19:24.039Z,13.98
2018-08-22T19:21:54.199Z,16.77
2018-08-22T19:24:23.958Z,16.02
2018-08-22T19:26:53.900Z,15.35
2018-08-22T19:29:24.000Z,15.58
2018-08-22T19:31:57.883Z,15.72
2018-08-22T19:34:27.782Z,16.23
2018-08-22T19:36:57.682Z,15.60
2018-08-22T19:39:39.131Z,15.83
2018-08-22T19:42:09.141Z,15.30
2018-08-22T19:44:38.923Z,16.25
2018-08-22T19:47:08.963Z,14.90
2018-08-22T19:49:38.750Z,14.38
2018-08-22T19:52:08.665Z,21.30
2018-08-22T19:54:38.553Z,17.00
2018-08-22T19:57:08.735Z,15.45
2018-08-22T19:59:38.557Z,15.40
2018-08-22T20:02:08.723Z,16.62
2018-08-22T20:04:42.628Z,16.10
2018-08-22T20:07:12.521Z,15.72
2018-08-22T20:09:43.834Z,15.95
2018-08-22T20:12:14.217Z,16.00
2018-08-22T20:14:52.905Z,17.80
2018-08-22T20:17:27.699Z,17.02
2018-08-22T20:19:57.997Z,18.10
2018-08-22T20:22:33.966Z,20.30
2018-08-22T20:25:03.945Z,18.10
2018-08-22T20:27:33.961Z,18.60
2018-08-22T20:30:08.804Z,18.27
2018-08-22T20:32:38.924Z,18.30
2018-08-22T20:35:10.853Z,19.95
2018-08-22T20:37:41.585Z,19.17
2018-08-22T20:40:11.394Z,16.62
2018-08-22T20:42:41.558Z,18.32
2018-08-22T20:45:14.958Z,17.30
2018-08-22T20:47:45.160Z,18.80
2018-08-22T20:50:15.076Z,18.50
2018-08-22T20:52:45.146Z,19.75
2018-08-22T20:55:15.104Z,18.87
2018-08-22T20:57:45.517Z,17.67
2018-08-22T21:00:16.912Z,19.02
2018-08-22T21:02:47.055Z,17.62
2018-08-22T21:05:17.546Z,20.52
2018-08-22T21:07:47.569Z,19.90
2018-08-22T21:10:17.868Z,19.90
2018-08-22T21:12:47.930Z,18.00
2018-08-22T21:15:17.691Z,17.90
2018-08-22T21:17:47.953Z,18.40
2018-08-22T21:20:23.696Z,18.37
2018-08-22T21:22:54.648Z,18.17
2018-08-22T21:25:24.435Z,24.85
2018-08-22T21:27:55.261Z,20.43
2018-08-22T21:30:25.059Z,19.73
2018-08-22T21:32:54.900Z,21.20
2018-08-22T21:35:25.467Z,20.40
2018-08-22T21:38:25.590Z,20.45
2018-08-22T21:40:55.384Z,22.95
2018-08-22T21:43:25.733Z,21.12
2018-08-22T21:45:55.508Z,24.55
2018-08-22T21:48:26.760Z,23.12
2018-08-22T21:50:56.540Z,22.95
2018-08-22T21:53:26.540Z,25.77
2018-08-22T21:55:56.307Z,23.20
2018-08-22T21:58:26.145Z,23.60
2018-08-22T22:00:55.980Z,26.20
2018-08-22T22:03:30.843Z,23.15
2018-08-22T22:06:04.320Z,23.83
2018-08-22T22:08:34.160Z,25.45
2018-08-22T22:11:06.420Z,26.23
2018-08-22T22:13:36.441Z,25.43
2018-08-22T22:16:06.742Z,28.57
2018-08-22T22:18:36.957Z,25.48
2018-08-22T22:21:16.765Z,25.57
2018-08-22T22:23:49.927Z,26.17
2018-08-22T22:26:20.341Z,26.70
2018-08-22T22:28:50.222Z,28.30
2018-08-22T22:31:20.145Z,26.80
2018-08-22T22:33:54.975Z,27.65
2018-08-22T22:36:24.684Z,30.20
2018-08-22T22:38:54.802Z,27.60
2018-08-22T22:41:29.139Z,24.72
2018-08-22T22:43:58.937Z,26.02
2018-08-22T22:46:28.933Z,29.27
2018-08-22T22:48:59.013Z,27.30
2018-08-22T22:51:29.164Z,30.92
2018-08-22T22:53:59.063Z,32.67
2018-08-22T22:56:28.924Z,37.23
2018-08-22T22:58:58.900Z,29.42
2018-08-22T23:01:28.863Z,30.27
2018-08-22T23:03:58.781Z,30.75
2018-08-22T23:06:28.523Z,29.45
2018-08-22T23:08:58.564Z,33.05
2018-08-22T23:11:28.505Z,36.65
2018-08-22T23:13:59.164Z,34.63
2018-08-22T23:16:33.766Z,34.73
2018-08-22T23:19:03.524Z,38.65
2018-08-22T23:21:33.264Z,43.40
2018-08-22T23:24:07.518Z,31.93
2018-08-22T23:26:37.259Z,34.55
2018-08-22T23:29:07.124Z,39.88
2018-08-22T23:31:36.884Z,41.10
2018-08-22T23:34:06.824Z,36.15
2018-08-22T23:36:36.618Z,36.35
2018-08-22T23:39:08.206Z,32.80
2018-08-22T23:41:38.044Z,32.08
2018-08-22T23:44:08.104Z,28.83
2018-08-22T23:46:37.866Z,32.15
2018-08-22T23:49:07.660Z,28.65
2018-08-22T23:51:37.420Z,31.23
2018-08-22T23:54:07.193Z,31.30
2018-08-22T23:56:36.985Z,29.67
2018-08-22T23:59:06.865Z,30.15
